Airport ID:K65S
Update Time (UTC):03 JUN 20 10:08
Wind Speed (Knots):7
Wind Direction (Magnetic):300
Temperature (°C):10
Dew Point (°C):6
Humidity (%):74
Altimeter (inHg):30.04
Density Altitude (Feet):
Visibility (Miles):10
Clouds (Hundreds of feet):CLR
Present Weather:NO PRECIPITATION
METAR:METAR K65S 031005Z AUTO 32007KT 10SM CLR 11/05 A3004 RMK AO2

The data displayed is for advisory purposes only and is not to be used for flight planning or operations.